createdAt,value
2023-05-21T00:02:53.285Z,9.57
2023-05-21T00:07:55.945Z,8.98
2023-05-21T00:12:59.786Z,8.07
2023-05-21T00:18:02.633Z,8.90
2023-05-21T00:23:05.735Z,12.48
2023-05-21T00:28:08.328Z,11.65
2023-05-21T00:33:13.914Z,10.43
2023-05-21T00:38:18.787Z,10.82
2023-05-21T00:43:26.128Z,10.30
2023-05-21T00:48:28.781Z,9.15
2023-05-21T00:53:35.069Z,10.35
2023-05-21T00:58:39.481Z,9.02
2023-05-21T01:03:43.988Z,11.68
2023-05-21T01:13:50.573Z,11.00
2023-05-21T01:18:54.230Z,12.63
2023-05-21T01:23:57.129Z,18.13
2023-05-21T01:28:59.930Z,10.27
2023-05-21T01:34:06.051Z,9.85
2023-05-21T01:39:19.466Z,9.98
2023-05-21T01:44:22.713Z,12.07
2023-05-21T01:49:26.866Z,12.93
2023-05-21T01:54:29.774Z,10.60
2023-05-21T01:59:33.638Z,11.73
2023-05-21T02:04:37.339Z,10.48
2023-05-21T02:09:40.327Z,13.32
2023-05-21T02:14:45.649Z,12.98
2023-05-21T02:19:48.536Z,14.60
2023-05-21T02:24:53.220Z,12.13
2023-05-21T02:29:56.157Z,13.43
2023-05-21T02:34:59.274Z,11.55
2023-05-21T02:40:04.302Z,13.00
2023-05-21T02:45:11.518Z,13.40
2023-05-21T02:50:16.401Z,15.68
2023-05-21T02:55:35.780Z,9.60
2023-05-21T03:00:39.229Z,8.95
2023-05-21T03:05:42.388Z,13.23
2023-05-21T03:10:45.030Z,15.10
2023-05-21T03:15:47.942Z,15.18
2023-05-21T03:21:11.461Z,13.00
2023-05-21T03:26:14.556Z,11.00
2023-05-21T03:31:17.258Z,13.80
2023-05-21T03:36:24.999Z,15.10
2023-05-21T03:41:28.173Z,15.80
2023-05-21T03:46:37.045Z,17.55
2023-05-21T03:51:46.314Z,9.45
2023-05-21T03:56:54.053Z,16.15
2023-05-21T04:01:58.405Z,13.40
2023-05-21T04:07:01.895Z,13.98
2023-05-21T04:12:05.633Z,15.07
2023-05-21T04:17:09.086Z,15.75
2023-05-21T04:22:12.392Z,15.38
2023-05-21T04:27:16.781Z,18.60
2023-05-21T04:32:22.432Z,15.63
2023-05-21T04:37:25.628Z,15.60
2023-05-21T04:42:28.321Z,14.68
2023-05-21T04:47:35.734Z,16.60
2023-05-21T04:52:40.421Z,18.05
2023-05-21T04:57:43.246Z,13.85
2023-05-21T05:02:45.853Z,12.50
2023-05-21T05:07:49.051Z,14.15
2023-05-21T05:12:51.792Z,16.42
2023-05-21T05:17:56.705Z,16.75
2023-05-21T05:22:59.673Z,12.55
2023-05-21T05:28:03.876Z,16.10
2023-05-21T05:33:07.509Z,17.27
2023-05-21T05:38:10.827Z,14.52
2023-05-21T05:43:15.262Z,14.77
2023-05-21T05:48:18.308Z,21.42
2023-05-21T05:53:21.199Z,17.60
2023-05-21T05:58:24.093Z,13.60
2023-05-21T06:03:33.817Z,17.67
2023-05-21T06:08:44.210Z,15.07
2023-05-21T06:13:49.250Z,16.10
2023-05-21T06:18:53.715Z,19.50
2023-05-21T06:23:57.714Z,17.27
2023-05-21T06:29:02.477Z,19.48
2023-05-21T06:34:05.704Z,15.63
2023-05-21T06:39:09.003Z,15.82
2023-05-21T06:44:12.081Z,14.65
2023-05-21T06:49:17.466Z,16.33
2023-05-21T06:54:20.505Z,19.30
2023-05-21T06:59:23.282Z,16.98
2023-05-21T07:04:26.605Z,14.63
2023-05-21T07:09:30.598Z,18.92
2023-05-21T07:14:33.388Z,14.53
2023-05-21T07:19:37.105Z,15.88
2023-05-21T07:24:41.796Z,15.43
2023-05-21T07:29:44.834Z,12.40
2023-05-21T07:34:47.963Z,25.08
2023-05-21T07:39:51.416Z,16.52
2023-05-21T07:44:54.373Z,13.30
2023-05-21T07:49:59.974Z,16.23
2023-05-21T07:55:03.562Z,17.38
2023-05-21T08:00:11.144Z,20.40
2023-05-21T08:05:25.774Z,16.90
2023-05-21T08:10:28.630Z,17.60
2023-05-21T08:15:31.978Z,17.80
2023-05-21T08:20:35.175Z,24.88
2023-05-21T08:25:38.347Z,16.27
2023-05-21T08:30:41.556Z,18.23
2023-05-21T08:35:44.209Z,14.90
2023-05-21T08:41:07.322Z,17.33
2023-05-21T08:46:10.904Z,15.43
2023-05-21T08:51:16.484Z,19.40
2023-05-21T08:56:24.847Z,14.85
2023-05-21T09:01:34.118Z,16.75
2023-05-21T09:06:44.907Z,19.00
2023-05-21T09:16:58.792Z,44.33
2023-05-21T09:22:03.808Z,16.48
2023-05-21T09:27:08.252Z,13.63
2023-05-21T09:32:12.506Z,14.75
2023-05-21T09:37:27.576Z,15.20
2023-05-21T09:42:31.977Z,11.50
2023-05-21T09:47:34.677Z,11.82
2023-05-21T09:52:40.789Z,16.50
2023-05-21T09:57:48.666Z,15.70
2023-05-21T10:02:58.066Z,11.50
2023-05-21T10:08:02.449Z,15.90
2023-05-21T10:13:11.438Z,11.98
2023-05-21T10:18:14.277Z,18.35
2023-05-21T10:23:18.625Z,15.27
2023-05-21T10:28:21.738Z,16.48
2023-05-21T10:38:28.214Z,23.50
2023-05-21T10:49:04.596Z,14.40
2023-05-21T10:54:17.424Z,17.73
2023-05-21T10:59:35.975Z,18.50
2023-05-21T11:04:42.653Z,18.27
2023-05-21T11:09:45.672Z,14.52
2023-05-21T11:14:58.916Z,13.65
2023-05-21T11:20:08.334Z,16.25
2023-05-21T11:25:12.679Z,14.10
2023-05-21T11:30:18.059Z,15.52
2023-05-21T11:35:23.118Z,14.70
2023-05-21T11:40:27.385Z,17.73
2023-05-21T11:45:33.310Z,15.68
2023-05-21T11:50:37.044Z,15.00
2023-05-21T11:55:43.589Z,16.23
2023-05-21T12:00:46.591Z,13.10
2023-05-21T12:05:49.782Z,14.63
2023-05-21T12:10:59.684Z,14.52
2023-05-21T12:16:06.493Z,19.42
2023-05-21T12:21:12.345Z,16.23
2023-05-21T12:26:15.370Z,20.17
2023-05-21T12:31:18.098Z,15.18
2023-05-21T12:36:30.113Z,14.27
2023-05-21T12:41:32.810Z,18.35
2023-05-21T12:46:39.252Z,17.05
2023-05-21T12:51:42.048Z,14.65
2023-05-21T12:56:45.842Z,19.27
2023-05-21T13:01:48.796Z,15.55
2023-05-21T13:06:51.761Z,15.88
2023-05-21T13:11:54.421Z,17.20
2023-05-21T13:16:58.104Z,16.25
2023-05-21T13:22:01.918Z,26.48
2023-05-21T13:27:10.979Z,13.57
2023-05-21T13:32:13.595Z,18.65
2023-05-21T13:37:16.735Z,16.38
2023-05-21T13:42:20.234Z,16.05
2023-05-21T13:47:23.128Z,16.38
2023-05-21T13:52:25.830Z,14.57
2023-05-21T13:57:31.723Z,21.73
2023-05-21T14:02:34.724Z,19.92
2023-05-21T14:07:37.708Z,19.35
2023-05-21T14:12:42.063Z,16.63
2023-05-21T14:17:45.034Z,27.77
2023-05-21T14:22:48.000Z,17.95
2023-05-21T14:27:50.981Z,18.08
2023-05-21T14:32:55.456Z,17.30
2023-05-21T14:38:00.398Z,14.93
2023-05-21T14:43:03.345Z,18.23
2023-05-21T14:48:08.752Z,18.40
2023-05-21T14:53:12.265Z,18.17
2023-05-21T14:58:15.077Z,15.98
2023-05-21T15:03:17.885Z,17.25
2023-05-21T15:08:20.940Z,20.13
2023-05-21T15:13:23.655Z,20.40
2023-05-21T15:18:26.367Z,13.82
2023-05-21T15:23:29.137Z,18.60
2023-05-21T15:28:31.788Z,15.88
2023-05-21T15:33:34.436Z,16.58
2023-05-21T15:38:37.820Z,20.00
2023-05-21T15:43:41.679Z,21.00
2023-05-21T15:48:46.143Z,14.35
2023-05-21T15:53:48.719Z,12.30
2023-05-21T15:58:52.814Z,19.85
2023-05-21T16:03:57.077Z,23.45
2023-05-21T16:09:01.387Z,24.08
2023-05-21T16:14:04.051Z,22.83
2023-05-21T16:19:06.743Z,18.92
2023-05-21T16:24:09.415Z,18.65
2023-05-21T16:29:12.255Z,17.70
2023-05-21T16:34:14.947Z,21.15
2023-05-21T16:39:17.730Z,20.48
2023-05-21T16:44:20.599Z,21.45
2023-05-21T16:49:23.458Z,21.08
2023-05-21T16:54:27.360Z,22.80
2023-05-21T16:59:30.748Z,28.80
2023-05-21T17:04:33.689Z,25.83
2023-05-21T17:09:36.534Z,27.25
2023-05-21T17:14:39.854Z,28.13
2023-05-21T17:19:44.637Z,28.65
2023-05-21T17:24:47.586Z,30.80
2023-05-21T17:29:53.874Z,27.55
2023-05-21T17:34:57.694Z,27.52
2023-05-21T17:40:01.356Z,24.02
2023-05-21T17:45:04.470Z,29.25
2023-05-21T17:50:08.383Z,33.53
2023-05-21T17:55:15.521Z,26.23
2023-05-21T18:00:18.841Z,28.85
2023-05-21T18:05:24.627Z,25.65
2023-05-21T18:10:27.403Z,26.08
2023-05-21T18:15:33.241Z,30.87
2023-05-21T18:20:37.288Z,23.33
2023-05-21T18:25:40.151Z,21.30
2023-05-21T18:30:42.989Z,21.27
2023-05-21T18:35:45.667Z,25.60
2023-05-21T18:40:50.150Z,20.87
2023-05-21T18:45:52.767Z,20.50
2023-05-21T18:50:55.892Z,21.00
2023-05-21T18:55:58.594Z,24.15
2023-05-21T19:01:02.107Z,19.00
2023-05-21T19:06:06.319Z,20.10
2023-05-21T19:11:09.404Z,23.40
2023-05-21T19:16:12.060Z,21.98
2023-05-21T19:21:14.836Z,21.77
2023-05-21T19:26:17.442Z,19.48
2023-05-21T19:31:20.620Z,21.48
2023-05-21T19:36:24.949Z,27.40
2023-05-21T19:41:36.723Z,20.15
2023-05-21T19:46:39.561Z,22.98
2023-05-21T19:51:42.514Z,28.25
2023-05-21T19:56:46.185Z,27.45
2023-05-21T20:01:51.693Z,21.88
2023-05-21T20:06:54.647Z,25.73
2023-05-21T20:11:57.355Z,28.38
2023-05-21T20:17:01.308Z,28.33
2023-05-21T20:22:04.227Z,27.98
2023-05-21T20:27:09.020Z,27.15
2023-05-21T20:32:11.734Z,28.88
2023-05-21T20:37:14.740Z,31.60
2023-05-21T20:42:17.740Z,24.27
2023-05-21T20:47:20.752Z,30.10
2023-05-21T20:52:25.050Z,28.43
2023-05-21T20:57:28.169Z,28.27
2023-05-21T21:02:33.464Z,31.60
2023-05-21T21:07:37.067Z,27.85
2023-05-21T21:12:39.742Z,28.85
2023-05-21T21:17:42.377Z,31.00
2023-05-21T21:22:46.932Z,25.25
2023-05-21T21:27:49.567Z,32.50
2023-05-21T21:32:53.057Z,25.77
2023-05-21T21:37:56.876Z,31.85
2023-05-21T21:42:59.502Z,29.02
2023-05-21T21:48:02.119Z,27.65
2023-05-21T21:53:05.973Z,27.83
2023-05-21T21:58:08.644Z,26.17
2023-05-21T22:03:14.418Z,26.20
2023-05-21T22:08:22.490Z,21.88
2023-05-21T22:13:32.521Z,26.90
2023-05-21T22:18:40.380Z,24.20
2023-05-21T22:23:44.071Z,23.65
2023-05-21T22:28:46.957Z,21.38
2023-05-21T22:33:55.500Z,30.80
2023-05-21T22:39:04.656Z,36.00
2023-05-21T22:44:07.314Z,33.45
2023-05-21T22:49:10.300Z,35.88
2023-05-21T22:54:13.122Z,32.28
2023-05-21T22:59:15.882Z,40.80
2023-05-21T23:04:24.043Z,26.33
2023-05-21T23:09:31.906Z,19.92
2023-05-21T23:14:38.144Z,23.58
2023-05-21T23:19:42.414Z,28.30
2023-05-21T23:29:47.798Z,33.70
2023-05-21T23:34:50.882Z,26.10
2023-05-21T23:39:53.651Z,22.63
2023-05-21T23:45:00.561Z,23.60
2023-05-21T23:50:03.360Z,25.02
2023-05-21T23:55:10.829Z,26.55
